Time;durP1;ratioP1;P1;durP2;ratioP2;P2;SDS_P1;SDS_P2;PMS_P1;PMS_P2;Temp;Humidity;BMP_temperature;BMP_pressure;BME280_temperature;BME280_humidity;BME280_pressure;Samples;Min_cycle;Max_cycle;Signal;HPM_P1;HPM_P2
2022/12/17 13:06:42;;;;;;;63.03;31.58;;;-3.00;3.40;;;;;;7360495;19;20020;-78
2022/12/17 13:09:35;;;;;;;57.58;31.33;;;-3.00;1.50;;;;;;7411710;19;20017;-78
2022/12/17 13:12:23;;;;;;;61.50;32.05;;;-2.70;1.60;;;;;;7396080;19;20075;-78
2022/12/17 13:15:10;;;;;;;55.53;29.58;;;-2.80;1.00;;;;;;7369894;19;20336;-78
2022/12/17 13:17:44;;;;;;;57.20;30.05;;;-2.90;1.50;;;;;;7361988;19;20019;-77
2022/12/17 13:20:28;;;;;;;69.45;31.73;;;-3.30;1.00;;;;;;7361309;19;20738;-78
2022/12/17 13:23:17;;;;;;;62.35;31.83;;;-3.40;1.80;;;;;;7364948;19;20011;-78
2022/12/17 13:25:47;;;;;;;66.80;30.50;;;-3.10;3.00;;;;;;7392209;19;20031;-78
2022/12/17 13:28:29;;;;;;;64.90;30.58;;;-3.40;1.00;;;;;;7387576;19;20379;-78
2022/12/17 13:31:16;;;;;;;61.28;29.90;;;-3.30;2.60;;;;;;7389459;19;20010;-79
2022/12/17 13:33:53;;;;;;;59.20;31.33;;;-3.20;1.10;;;;;;7389618;19;20124;-78
2022/12/17 13:36:30;;;;;;;60.25;30.80;;;-3.20;2.30;;;;;;7386809;19;20385;-78
2022/12/17 13:39:07;;;;;;;65.07;31.98;;;-2.90;2.60;;;;;;7387057;19;20018;-78
2022/12/17 13:41:37;;;;;;;67.68;31.77;;;-2.90;1.00;;;;;;7387654;19;20018;-78
2022/12/17 13:44:21;;;;;;;63.78;31.35;;;-3.40;1.00;;;;;;7388262;19;20034;-79
2022/12/17 13:46:55;;;;;;;66.70;32.55;;;-3.50;2.30;;;;;;7383947;19;20084;-78
2022/12/17 13:49:27;;;;;;;65.43;33.60;;;-3.50;2.30;;;;;;7386834;19;20082;-79
2022/12/17 13:52:05;;;;;;;74.13;35.55;;;-3.60;3.10;;;;;;7388150;19;20541;-77
2022/12/17 13:54:40;;;;;;;63.92;33.28;;;-3.70;3.50;;;;;;7387723;19;20017;-78
2022/12/17 13:57:12;;;;;;;72.07;34.20;;;-3.70;3.70;;;;;;7387438;19;20037;-78
2022/12/17 13:59:43;;;;;;;68.88;33.75;;;-3.50;4.20;;;;;;7383671;19;20010;-78
2022/12/17 14:02:27;;;;;;;71.53;35.55;;;-3.50;3.80;;;;;;7386886;19;20074;-78
2022/12/17 14:04:59;;;;;;;69.72;35.13;;;-3.50;3.50;;;;;;7387602;19;20018;-78
2022/12/17 14:07:40;;;;;;;69.80;35.10;;;-3.50;3.50;;;;;;7388126;19;20010;-78
2022/12/17 14:10:16;;;;;;;71.03;33.85;;;-3.40;5.00;;;;;;7385317;19;20026;-78
2022/12/17 14:12:48;;;;;;;68.95;33.53;;;-3.40;4.20;;;;;;7387748;19;20014;-79
2022/12/17 14:15:27;;;;;;;67.60;33.13;;;-3.60;3.50;;;;;;7386710;19;20391;-79
2022/12/17 14:18:00;;;;;;;64.47;33.05;;;-3.70;3.50;;;;;;7386974;19;20018;-77
2022/12/17 14:20:32;;;;;;;68.97;33.92;;;-3.80;4.20;;;;;;7390643;19;20068;-79
2022/12/17 14:23:05;;;;;;;67.93;35.03;;;-3.70;4.80;;;;;;7393921;19;20094;-79
2022/12/17 14:25:37;;;;;;;64.57;34.08;;;-3.70;5.70;;;;;;7392476;19;20010;-79
2022/12/17 14:28:22;;;;;;;73.13;36.85;;;-3.70;5.30;;;;;;7394889;19;20022;-78
2022/12/17 14:30:53;;;;;;;68.28;35.88;;;-3.80;5.20;;;;;;7393941;19;20017;-77
2022/12/17 14:33:46;;;;;;;75.07;38.15;;;-3.80;5.60;;;;;;7394416;19;20015;-78
2022/12/17 14:36:22;;;;;;;73.13;37.05;;;-3.80;6.00;;;;;;7394773;19;20114;-78
2022/12/17 14:38:55;;;;;;;71.13;35.42;;;-3.80;5.50;;;;;;7392560;19;20093;-78
2022/12/17 14:44:20;;;;;;;74.50;37.13;;;-3.80;6.60;;;;;;7392604;19;20010;-79
2022/12/17 14:47:10;;;;;;;78.07;36.88;;;-3.80;6.00;;;;;;7391645;19;20100;-78
2022/12/17 14:50:05;;;;;;;74.13;36.65;;;-4.00;6.50;;;;;;7391210;19;20018;-79
2022/12/17 14:52:40;;;;;;;74.90;36.58;;;-4.00;6.90;;;;;;7391136;19;20081;-78
2022/12/17 14:55:26;;;;;;;71.88;36.30;;;-4.00;6.90;;;;;;7392063;19;20735;-78
2022/12/17 14:58:09;;;;;;;71.60;34.67;;;-4.10;8.10;;;;;;7393125;19;20014;-78
2022/12/17 15:00:40;;;;;;;70.97;35.03;;;-4.30;7.90;;;;;;7391118;19;20023;-78
2022/12/17 15:03:13;;;;;;;69.70;34.58;;;-4.30;9.20;;;;;;7391621;19;20015;-78
2022/12/17 15:05:47;;;;;;;71.22;35.42;;;-4.40;9.40;;;;;;7391077;19;20015;-78
2022/12/17 15:08:17;;;;;;;;;;;-4.40;10.10;;;;;;7393206;19;20120;-79
2022/12/17 15:10:47;;;;;;;72.50;36.80;;;-4.40;10.20;;;;;;7391484;19;19925;-79
2022/12/17 15:13:17;;;;;;;73.38;36.22;;;-4.40;10.40;;;;;;7392676;19;20015;-79
2022/12/17 15:15:47;;;;;;;76.80;35.92;;;-4.40;10.60;;;;;;7391330;19;20014;-79
2022/12/17 15:18:17;;;;;;;75.72;36.35;;;-4.40;11.10;;;;;;7390115;19;20038;-78
2022/12/17 15:20:49;;;;;;;77.40;39.53;;;-4.50;11.00;;;;;;7390542;19;20022;-79
2022/12/17 15:23:22;;;;;;;77.00;36.17;;;-4.30;11.80;;;;;;7390068;19;20019;-78
2022/12/17 15:25:54;;;;;;;74.95;35.22;;;-4.40;11.40;;;;;;7390395;19;20048;-79
2022/12/17 15:28:24;;;;;;;76.03;36.13;;;-4.40;11.30;;;;;;7389390;19;20024;-79
2022/12/17 15:30:54;;;;;;;78.78;38.17;;;-4.50;11.10;;;;;;7388430;19;20018;-79
2022/12/17 15:33:24;;;;;;;76.32;37.22;;;-4.50;11.40;;;;;;7389733;19;20044;-78
2022/12/17 15:35:56;;;;;;;73.97;38.65;;;-4.50;11.60;;;;;;7389840;19;20014;-79
2022/12/17 15:38:30;;;;;;;81.43;39.65;;;-4.50;12.50;;;;;;7388921;19;20015;-79
2022/12/17 15:43:09;;;;;;;73.82;36.90;;;-4.50;12.80;;;;;;7391700;19;20017;-79
2022/12/17 15:43:49;;;;;;;76.45;36.85;;;-4.60;12.80;;;;;;7389735;19;20553;-78
2022/12/17 15:46:19;;;;;;;76.85;37.67;;;-4.50;13.40;;;;;;7389460;19;20400;-79
2022/12/17 15:48:51;;;;;;;83.22;38.85;;;-4.60;13.50;;;;;;7388213;19;20023;-77
2022/12/17 15:51:24;;;;;;;76.78;39.38;;;-4.60;13.50;;;;;;7391512;19;20014;-79
2022/12/17 15:53:54;;;;;;;80.47;38.60;;;-4.60;13.50;;;;;;7389467;19;20019;-79
2022/12/17 15:56:25;;;;;;;77.18;38.17;;;-4.60;13.50;;;;;;7388204;19;20014;-78
2022/12/17 15:58:59;;;;;;;83.78;37.97;;;-4.70;14.00;;;;;;7388976;19;20018;-79
2022/12/17 16:01:28;;;;;;;77.75;37.25;;;-4.70;13.40;;;;;;7391312;19;20078;-79
2022/12/17 16:03:59;;;;;;;77.97;38.13;;;-4.80;14.00;;;;;;7389417;19;20035;-79
2022/12/17 16:06:32;;;;;;;75.40;36.55;;;-4.80;14.50;;;;;;7391556;19;20031;-78
2022/12/17 16:09:02;;;;;;;85.03;39.22;;;-4.80;14.70;;;;;;7390171;19;20025;-78
2022/12/17 16:11:32;;;;;;;83.07;38.63;;;-4.80;15.00;;;;;;7392035;19;20031;-78
2022/12/17 16:14:02;;;;;;;78.07;38.67;;;-4.80;15.20;;;;;;7392474;19;20010;-77
2022/12/17 16:16:31;;;;;;;89.53;40.22;;;-4.90;14.70;;;;;;7388824;19;20458;-78
2022/12/17 16:19:02;;;;;;;85.88;41.53;;;-4.90;15.20;;;;;;7389217;19;20021;-78
2022/12/17 16:21:34;;;;;;;86.55;40.78;;;-4.90;15.30;;;;;;7390811;19;20007;-78
2022/12/17 16:24:04;;;;;;;90.30;44.13;;;-5.00;15.20;;;;;;7389080;19;20019;-79
2022/12/17 16:26:35;;;;;;;89.43;43.75;;;-4.90;15.70;;;;;;7388416;19;20018;-79
2022/12/17 16:29:05;;;;;;;84.38;41.58;;;-4.90;16.00;;;;;;7386750;19;20014;-78
2022/12/17 16:31:36;;;;;;;94.20;43.70;;;-4.90;15.90;;;;;;7387630;19;20019;-80
2022/12/17 16:34:10;;;;;;;94.55;42.85;;;-5.00;15.90;;;;;;7388195;19;20057;-77
2022/12/17 16:36:43;;;;;;;87.63;42.03;;;-4.90;16.40;;;;;;7388333;19;20026;-79
2022/12/17 16:39:17;;;;;;;86.57;41.20;;;-4.90;16.20;;;;;;7386448;19;20350;-78
2022/12/17 16:41:47;;;;;;;81.30;41.38;;;-4.90;16.60;;;;;;7385419;19;20081;-78
2022/12/17 16:44:17;;;;;;;95.90;42.53;;;-4.90;16.60;;;;;;7387212;19;20022;-78
2022/12/17 16:46:47;;;;;;;96.93;42.67;;;-4.90;16.30;;;;;;7387367;19;20043;-78
2022/12/17 16:49:19;;;;;;;98.60;41.70;;;-4.90;16.40;;;;;;7385788;19;20019;-78
2022/12/17 16:51:55;;;;;;;97.28;44.10;;;-4.90;16.60;;;;;;7387045;19;20483;-78
2022/12/17 16:54:31;;;;;;;102.60;43.40;;;-4.90;16.50;;;;;;7386416;19;20025;-78
2022/12/17 16:57:01;;;;;;;95.20;44.33;;;-4.90;16.40;;;;;;7387331;19;20022;-78
2022/12/17 16:59:31;;;;;;;96.90;43.10;;;-5.00;16.40;;;;;;7387581;19;20010;-78
2022/12/17 17:02:01;;;;;;;96.55;43.75;;;-5.00;16.40;;;;;;7388117;19;20022;-78
2022/12/17 17:04:31;;;;;;;94.35;43.90;;;-5.10;16.20;;;;;;7386873;19;20027;-78
2022/12/17 17:07:04;;;;;;;101.68;45.35;;;-5.00;16.70;;;;;;7386950;19;20237;-78
2022/12/17 17:09:34;;;;;;;98.13;44.38;;;-5.00;16.90;;;;;;7385309;19;20033;-78
2022/12/17 17:12:04;;;;;;;92.40;43.15;;;-5.00;16.90;;;;;;7386433;19;20022;-78
2022/12/17 17:14:34;;;;;;;94.38;43.60;;;-5.00;16.60;;;;;;7390683;19;20026;-78
2022/12/17 17:17:03;;;;;;;93.78;44.03;;;-5.10;16.50;;;;;;7386626;19;20439;-80
2022/12/17 17:19:34;;;;;;;96.13;43.28;;;-5.20;17.00;;;;;;7385478;19;20037;-79
2022/12/17 17:22:06;;;;;;;92.60;42.28;;;-5.20;16.60;;;;;;7387169;19;20114;-79
2022/12/17 17:24:36;;;;;;;96.30;42.97;;;-5.20;17.10;;;;;;7388396;19;20021;-78
2022/12/17 17:27:06;;;;;;;92.43;42.90;;;-5.20;16.80;;;;;;7386227;19;20030;-79
2022/12/17 17:29:36;;;;;;;102.97;45.25;;;-5.20;16.60;;;;;;7384608;19;20445;-78
2022/12/17 17:32:06;;;;;;;101.65;46.15;;;-5.30;16.60;;;;;;7386298;19;20465;-77
2022/12/17 17:34:42;;;;;;;108.93;49.17;;;-5.30;16.10;;;;;;7386873;19;20018;-78
2022/12/17 17:37:14;;;;;;;97.55;44.95;;;-5.30;16.20;;;;;;7385852;19;20470;-78
2022/12/17 17:39:45;;;;;;;92.60;42.70;;;-5.50;16.40;;;;;;7385483;19;20022;-76
2022/12/17 17:42:15;;;;;;;96.53;42.85;;;-5.50;16.60;;;;;;7386217;19;20019;-78
2022/12/17 17:44:44;;;;;;;101.88;43.33;;;-5.40;17.30;;;;;;7386191;19;20082;-78
2022/12/17 17:47:14;;;;;;;98.60;45.50;;;-5.50;16.90;;;;;;7386318;19;20094;-78
2022/12/17 17:49:44;;;;;;;96.57;44.33;;;-5.50;17.10;;;;;;7384330;19;20042;-78
2022/12/17 17:52:17;;;;;;;99.30;44.13;;;-5.50;16.80;;;;;;7386229;19;20074;-78
2022/12/17 17:54:48;;;;;;;95.80;44.40;;;-5.50;17.00;;;;;;7391906;19;20025;-78
2022/12/17 17:57:18;;;;;;;92.63;42.03;;;-5.60;17.00;;;;;;7393644;19;20018;-78
2022/12/17 17:59:48;;;;;;;106.97;46.63;;;-5.50;17.00;;;;;;7390918;19;20369;-79
2022/12/17 18:02:18;;;;;;;100.63;44.80;;;-5.50;16.50;;;;;;7393293;19;20022;-78
2022/12/17 18:04:48;;;;;;;106.55;43.85;;;-5.60;16.50;;;;;;7392651;19;20478;-79
2022/12/17 18:07:20;;;;;;;111.25;47.22;;;-5.60;17.20;;;;;;7392439;19;20090;-77
2022/12/17 18:09:58;;;;;;;105.80;44.55;;;-5.70;16.30;;;;;;7390024;19;20026;-78
2022/12/17 18:15:12;;;;;;;107.70;46.78;;;-5.60;17.30;;;;;;7394067;19;20006;-78
2022/12/17 18:17:46;;;;;;;105.72;48.55;;;-5.70;16.90;;;;;;7392854;19;20022;-78
2022/12/17 18:20:16;;;;;;;109.13;48.42;;;-5.70;16.80;;;;;;7391289;19;20463;-79
2022/12/17 18:22:49;;;;;;;105.85;46.45;;;-5.70;16.50;;;;;;7392835;19;20025;-78
2022/12/17 18:25:20;;;;;;;112.95;47.30;;;-5.70;16.70;;;;;;7391643;19;20014;-78
2022/12/17 18:27:52;;;;;;;105.78;49.63;;;-5.70;17.10;;;;;;7393737;19;20018;-79
2022/12/17 18:30:22;;;;;;;109.97;49.58;;;-5.80;16.20;;;;;;7388530;19;20466;-78
2022/12/17 18:32:52;;;;;;;103.45;47.05;;;-5.70;17.30;;;;;;7391930;19;20022;-80
2022/12/17 18:35:22;;;;;;;103.78;45.30;;;-5.70;17.70;;;;;;7391828;19;20694;-78
2022/12/17 18:37:55;;;;;;;109.07;46.42;;;-5.70;17.90;;;;;;7392404;19;20048;-79
2022/12/17 18:40:25;;;;;;;109.07;48.15;;;-5.80;17.90;;;;;;7389051;19;20062;-77
2022/12/17 18:45:44;;;;;;;97.80;45.00;;;-5.80;17.90;;;;;;7392345;19;20028;-79
2022/12/17 18:48:14;;;;;;;112.90;47.60;;;-5.90;18.00;;;;;;7391302;19;20018;-78
2022/12/17 18:50:44;;;;;;;114.28;47.00;;;-5.90;17.70;;;;;;7393433;19;20373;-79
2022/12/17 18:53:16;;;;;;;98.43;43.88;;;-6.00;17.90;;;;;;7391770;19;20031;-79
2022/12/17 18:55:46;;;;;;;106.70;46.03;;;-5.90;17.80;;;;;;7392033;19;20412;-79
2022/12/17 18:58:16;;;;;;;102.28;45.60;;;-5.90;17.30;;;;;;7392557;19;20014;-78
2022/12/17 19:00:46;;;;;;;98.97;44.30;;;-6.00;17.80;;;;;;7392314;19;20078;-77
2022/12/17 19:03:16;;;;;;;102.10;43.42;;;-6.10;17.00;;;;;;7392556;19;20022;-78
2022/12/17 19:05:48;;;;;;;98.55;47.10;;;-6.10;17.30;;;;;;7388554;19;20010;-76
2022/12/17 19:08:25;;;;;;;102.95;45.58;;;-6.00;18.40;;;;;;7391348;19;20014;-78
2022/12/17 19:10:55;;;;;;;106.07;47.15;;;-6.00;18.00;;;;;;7392410;19;20015;-77
2022/12/17 19:13:25;;;;;;;102.90;45.25;;;-6.00;17.80;;;;;;7393441;19;20031;-78
2022/12/17 19:15:55;;;;;;;104.10;47.70;;;-6.00;17.70;;;;;;7391651;19;20021;-78
2022/12/17 19:18:25;;;;;;;112.93;47.72;;;-6.10;18.10;;;;;;7389481;19;20030;-79
2022/12/17 19:20:58;;;;;;;109.78;48.53;;;-6.00;18.00;;;;;;7390705;19;20021;-79
2022/12/17 19:23:31;;;;;;;107.00;46.63;;;-6.10;17.10;;;;;;7390424;19;20015;-79
2022/12/17 19:26:08;;;;;;;112.40;46.08;;;-6.20;16.90;;;;;;7391938;19;20019;-80
2022/12/17 19:28:39;;;;;;;105.93;47.35;;;-6.10;17.20;;;;;;7389072;19;20025;-80
2022/12/17 19:31:10;;;;;;;105.85;46.22;;;-6.10;17.00;;;;;;7390628;19;20011;-79
2022/12/17 19:33:40;;;;;;;117.80;47.22;;;-6.20;16.90;;;;;;7390081;19;20010;-78
2022/12/17 19:36:13;;;;;;;109.60;48.05;;;-6.10;17.00;;;;;;7391912;19;20477;-77
2022/12/17 19:38:46;;;;;;;102.93;46.78;;;-6.10;17.00;;;;;;7389285;19;20026;-79
2022/12/17 19:41:18;;;;;;;103.03;46.38;;;-6.20;16.60;;;;;;7390782;19;20378;-80
2022/12/17 19:43:54;;;;;;;112.32;48.83;;;-6.10;17.00;;;;;;7391803;19;20703;-78
2022/12/17 19:46:24;;;;;;;110.50;50.38;;;-6.10;17.00;;;;;;7391458;19;20010;-80
2022/12/17 19:48:55;;;;;;;115.88;50.83;;;-6.20;16.70;;;;;;7387936;19;20438;-79
2022/12/17 19:51:28;;;;;;;109.88;48.25;;;-6.10;17.40;;;;;;7389157;19;20494;-77
2022/12/17 19:54:01;;;;;;;120.25;50.08;;;-6.20;16.00;;;;;;7391389;19;20038;-78
2022/12/17 19:56:38;;;;;;;107.07;49.30;;;-6.30;16.40;;;;;;7390676;19;20010;-77
2022/12/17 19:59:09;;;;;;;109.50;48.80;;;-6.20;16.80;;;;;;7389551;19;20021;-78
2022/12/17 20:01:42;;;;;;;105.63;47.45;;;-6.30;16.80;;;;;;7389300;19;20077;-78
2022/12/17 20:04:14;;;;;;;108.68;48.45;;;-6.30;16.50;;;;;;7390698;19;20038;-78
2022/12/17 20:06:45;;;;;;;112.90;49.00;;;-6.30;16.90;;;;;;7389017;19;20238;-78
2022/12/17 20:09:17;;;;;;;116.53;50.30;;;-6.40;16.30;;;;;;7388545;19;20022;-78
2022/12/17 20:11:47;;;;;;;111.10;48.03;;;-6.40;16.80;;;;;;7390107;19;20083;-78
2022/12/17 20:14:19;;;;;;;107.93;48.13;;;-6.40;17.10;;;;;;7393731;19;20082;-77
2022/12/17 20:16:51;;;;;;;108.18;48.08;;;-6.50;16.00;;;;;;7389245;19;20024;-79
2022/12/17 20:19:23;;;;;;;115.20;47.08;;;-6.60;15.80;;;;;;7385400;19;20429;-78
2022/12/17 20:21:54;;;;;;;104.95;46.97;;;-6.60;16.80;;;;;;7389974;19;20022;-78
2022/12/17 20:24:27;;;;;;;108.03;47.53;;;-6.50;17.10;;;;;;7388507;19;20014;-79
2022/12/17 20:27:01;;;;;;;117.03;48.90;;;-6.50;17.50;;;;;;7389880;19;20030;-78
2022/12/17 20:29:31;;;;;;;115.50;49.15;;;-6.50;17.70;;;;;;7386679;19;20021;-78
2022/12/17 20:32:01;;;;;;;112.25;49.45;;;-6.50;17.30;;;;;;7389846;19;20018;-78
2022/12/17 20:34:31;;;;;;;99.45;45.65;;;-6.50;17.40;;;;;;7389827;19;20120;-78
2022/12/17 20:37:01;;;;;;;111.18;48.30;;;-6.50;17.70;;;;;;7389147;19;20041;-78
2022/12/17 20:39:34;;;;;;;109.70;47.65;;;-6.60;16.80;;;;;;7386469;19;20015;-77
2022/12/17 20:42:04;;;;;;;120.28;49.20;;;-6.50;17.60;;;;;;7389627;19;20018;-79
2022/12/17 20:44:34;;;;;;;117.15;47.38;;;-6.40;17.70;;;;;;7387720;19;20019;-78
2022/12/17 20:47:04;;;;;;;115.32;48.67;;;-6.40;17.80;;;;;;7389211;19;20024;-78
2022/12/17 20:49:34;;;;;;;102.82;47.15;;;-6.50;17.20;;;;;;7386210;19;20024;-78
2022/12/17 20:52:04;;;;;;;102.63;45.78;;;-6.50;17.60;;;;;;7388531;19;20021;-78
2022/12/17 20:54:37;;;;;;;105.55;46.33;;;-6.40;17.80;;;;;;7388175;19;20019;-78
2022/12/17 20:57:06;;;;;;;103.35;45.70;;;-6.40;17.70;;;;;;7389236;19;20006;-78
2022/12/17 20:59:36;;;;;;;108.28;46.67;;;-6.50;17.30;;;;;;7387322;19;20102;-78
2022/12/17 21:02:06;;;;;;;95.88;44.38;;;-6.50;17.90;;;;;;7386904;19;20474;-79
2022/12/17 21:04:36;;;;;;;97.65;43.67;;;-6.50;16.50;;;;;;7387210;19;20034;-78
2022/12/17 21:07:06;;;;;;;103.82;44.38;;;-6.60;17.00;;;;;;7387165;19;20014;-78
2022/12/17 21:09:39;;;;;;;109.00;46.75;;;-6.70;16.80;;;;;;7386671;19;20021;-78
2022/12/17 21:12:11;;;;;;;102.38;44.10;;;-6.70;17.00;;;;;;7388204;19;20450;-78
2022/12/17 21:14:41;;;;;;;104.63;45.47;;;-6.70;17.80;;;;;;7393107;19;20029;-78
2022/12/17 21:17:13;;;;;;;109.38;44.95;;;-6.70;17.40;;;;;;7386988;19;20014;-78
2022/12/17 21:19:43;;;;;;;102.85;45.22;;;-6.70;17.40;;;;;;7385348;19;20018;-78
2022/12/17 21:22:15;;;;;;;106.95;44.58;;;-6.60;17.70;;;;;;7388069;19;20019;-78
2022/12/17 21:24:47;;;;;;;102.90;44.40;;;-6.60;17.70;;;;;;7387707;19;20089;-79
2022/12/17 21:27:17;;;;;;;108.00;44.45;;;-6.60;17.20;;;;;;7387335;19;20032;-79
2022/12/17 21:29:47;;;;;;;105.60;45.17;;;-6.60;17.30;;;;;;7384646;19;20022;-79
2022/12/17 21:32:17;;;;;;;102.93;45.00;;;-6.70;16.80;;;;;;7386088;19;20018;-79
2022/12/17 21:34:47;;;;;;;101.85;46.55;;;-6.70;17.50;;;;;;7388649;19;20323;-77
2022/12/17 21:37:16;;;;;;;102.72;44.92;;;-6.70;17.00;;;;;;7386150;19;20010;-78
2022/12/17 21:39:49;;;;;;;104.07;43.78;;;-6.70;17.00;;;;;;7386784;19;20018;-79
2022/12/17 21:45:08;;;;;;;103.10;46.28;;;-6.70;17.60;;;;;;7387786;19;20483;-78
2022/12/17 21:47:38;;;;;;;95.80;45.10;;;-6.80;16.40;;;;;;7386129;19;20025;-78
2022/12/17 21:50:08;;;;;;;106.50;45.75;;;-6.70;17.40;;;;;;7385376;19;20018;-79
2022/12/17 21:52:38;;;;;;;107.60;45.97;;;-6.80;16.80;;;;;;7386497;19;20090;-77
2022/12/17 21:55:11;;;;;;;104.68;44.90;;;-6.80;17.10;;;;;;7387774;19;20019;-78
2022/12/17 21:57:41;;;;;;;113.50;46.88;;;-6.80;16.60;;;;;;7386262;19;20040;-78
2022/12/17 22:00:12;;;;;;;108.55;46.03;;;-6.90;16.50;;;;;;7383870;19;20140;-79
2022/12/17 22:02:42;;;;;;;114.57;45.83;;;-6.80;16.50;;;;;;7387038;19;20533;-79
2022/12/17 22:05:12;;;;;;;106.22;44.92;;;-6.90;16.20;;;;;;7387555;19;20020;-78
2022/12/17 22:07:46;;;;;;;104.30;44.88;;;-6.90;16.90;;;;;;7386615;19;20015;-78
2022/12/17 22:10:23;;;;;;;109.07;45.42;;;-6.90;15.70;;;;;;7384501;19;20038;-80
2022/12/17 22:15:55;;;;;;;107.47;45.70;;;-6.90;16.40;;;;;;7385294;19;20018;-78
2022/12/17 22:18:26;;;;;;;103.30;45.28;;;-6.90;16.30;;;;;;7384406;19;20010;-79
2022/12/17 22:21:00;;;;;;;110.07;46.35;;;-6.90;16.40;;;;;;7385123;19;20018;-80
2022/12/17 22:23:30;;;;;;;113.10;47.38;;;-6.80;17.30;;;;;;7385707;19;20014;-77
2022/12/17 22:26:03;;;;;;;104.57;45.60;;;-6.80;17.10;;;;;;7387187;19;20382;-78
2022/12/17 22:28:33;;;;;;;105.68;45.22;;;-6.90;17.10;;;;;;7384063;19;20014;-79
2022/12/17 22:33:50;;;;;;;107.70;45.50;;;-6.90;16.90;;;;;;7384713;19;20065;-78
2022/12/17 22:36:41;;;;;;;106.32;45.42;;;-6.90;16.80;;;;;;7386599;19;20017;-78
2022/12/17 22:39:31;;;;;;;104.88;45.10;;;-6.90;17.00;;;;;;7382638;19;20011;-79
2022/12/17 22:45:25;;;;;;;111.93;46.28;;;-6.90;16.70;;;;;;7394132;19;20019;-79
2022/12/17 22:47:55;;;;;;;99.13;44.42;;;-7.00;16.70;;;;;;7391615;19;20065;-80
2022/12/17 22:50:25;;;;;;;106.38;44.47;;;-7.10;16.20;;;;;;7388757;19;20018;-78
2022/12/17 22:53:10;;;;;;;;;;;-7.10;16.60;;;;;;7393943;19;20011;-77
2022/12/17 22:55:40;;;;;;;106.70;45.85;;;-6.90;17.50;;;;;;7393000;19;19918;-78
2022/12/17 22:58:13;;;;;;;103.93;45.30;;;-7.00;16.80;;;;;;7391348;19;20082;-78
2022/12/17 23:00:43;;;;;;;107.75;44.03;;;-7.00;16.80;;;;;;7393264;19;20015;-78
2022/12/17 23:03:13;;;;;;;109.82;45.65;;;-7.10;16.60;;;;;;7392736;19;20018;-79
2022/12/17 23:05:43;;;;;;;104.00;46.28;;;-7.10;16.90;;;;;;7393620;19;20077;-78
2022/12/17 23:08:13;;;;;;;107.88;46.13;;;-7.00;17.00;;;;;;7390414;19;20497;-78
2022/12/17 23:10:42;;;;;;;111.00;46.40;;;-7.10;16.50;;;;;;7390721;19;20025;-78
2022/12/17 23:13:15;;;;;;;104.25;44.15;;;-7.00;17.00;;;;;;7392068;19;20380;-78
2022/12/17 23:15:45;;;;;;;101.45;45.58;;;-6.90;17.50;;;;;;7391107;19;20015;-77
2022/12/17 23:18:15;;;;;;;108.70;46.50;;;-7.10;16.50;;;;;;7390054;19;20031;-78
2022/12/17 23:20:44;;;;;;;102.68;44.80;;;-7.30;15.50;;;;;;7390565;19;20014;-78
2022/12/17 23:23:14;;;;;;;94.47;44.20;;;-7.30;16.40;;;;;;7390762;19;20010;-77
2022/12/17 23:25:44;;;;;;;95.85;43.67;;;-7.30;16.70;;;;;;7390748;19;20032;-78
2022/12/17 23:28:17;;;;;;;109.50;46.03;;;-7.30;16.10;;;;;;7391240;19;20015;-79
2022/12/17 23:30:46;;;;;;;96.93;44.53;;;-7.30;15.90;;;;;;7390437;19;20014;-79
2022/12/17 23:33:16;;;;;;;105.93;46.25;;;-7.40;15.00;;;;;;7390051;19;20010;-78
2022/12/17 23:35:46;;;;;;;95.90;43.55;;;-7.50;14.10;;;;;;7392525;19;20356;-78
2022/12/17 23:38:16;;;;;;;100.25;44.00;;;-7.50;15.20;;;;;;7391381;19;20601;-77
2022/12/17 23:40:46;;;;;;;103.05;44.17;;;-7.50;15.50;;;;;;7390195;19;20010;-78
2022/12/17 23:43:19;;;;;;;98.30;42.92;;;-7.40;15.80;;;;;;7390280;19;20015;-77
2022/12/17 23:45:48;;;;;;;106.72;43.88;;;-7.30;15.80;;;;;;7390488;19;20022;-78
2022/12/17 23:48:18;;;;;;;92.47;42.15;;;-7.20;16.20;;;;;;7388925;19;20023;-78
2022/12/17 23:50:48;;;;;;;106.22;45.47;;;-7.20;15.60;;;;;;7389048;19;20023;-78
2022/12/17 23:53:18;;;;;;;96.05;42.60;;;-7.20;15.00;;;;;;7391061;19;20031;-78
2022/12/17 23:55:48;;;;;;;97.47;43.95;;;-7.30;15.20;;;;;;7389833;19;20014;-78
2022/12/17 23:58:21;;;;;;;103.43;45.60;;;-7.30;14.60;;;;;;7389928;19;20014;-78
